createdAt,value
2022-09-24T00:01:15.883Z,96895.78
2022-09-24T00:03:46.563Z,96891.66
2022-09-24T00:06:15.260Z,96886.88
2022-09-24T00:08:43.612Z,96884.41
2022-09-24T00:11:14.369Z,96881.78
2022-09-24T00:13:42.631Z,96882.47
2022-09-24T00:16:14.825Z,96873.94
2022-09-24T00:18:42.991Z,96878.38
2022-09-24T00:21:18.531Z,96873.09
2022-09-24T00:23:50.779Z,96875.75
2022-09-24T00:26:37.132Z,96884.94
2022-09-24T00:29:05.653Z,96877.38
2022-09-24T00:31:51.311Z,96879.88
2022-09-24T00:34:19.880Z,96876.72
2022-09-24T00:36:48.649Z,96872.78
2022-09-24T00:39:17.498Z,96881.47
2022-09-24T00:41:49.140Z,96879.69
2022-09-24T00:44:48.961Z,96878.50
2022-09-24T00:47:26.293Z,96867.00
2022-09-24T00:50:00.340Z,96867.38
2022-09-24T00:52:28.423Z,96860.78
2022-09-24T00:54:56.811Z,96865.22
2022-09-24T00:57:25.040Z,96864.56
2022-09-24T00:59:55.076Z,96857.84
2022-09-24T01:02:25.273Z,96867.19
2022-09-24T01:04:56.620Z,96857.66
2022-09-24T01:07:25.658Z,96860.94
2022-09-24T01:09:53.908Z,96859.94
2022-09-24T01:12:29.098Z,96863.25
2022-09-24T01:15:05.080Z,96861.25
2022-09-24T01:17:39.299Z,96850.41
2022-09-24T01:20:26.820Z,96847.78
2022-09-24T01:23:05.761Z,96843.84
2022-09-24T01:25:41.823Z,96847.63
2022-09-24T01:28:25.011Z,96841.38
2022-09-24T01:30:59.758Z,96841.06
2022-09-24T01:33:29.523Z,96843.69
2022-09-24T01:36:00.139Z,96840.06
2022-09-24T01:38:31.024Z,96841.06
2022-09-24T01:41:03.791Z,96843.34
2022-09-24T01:43:33.272Z,96838.75
2022-09-24T01:46:07.133Z,96841.88
2022-09-24T01:48:37.574Z,96837.91
2022-09-24T01:51:10.459Z,96835.13
2022-09-24T01:56:51.667Z,96834.16
2022-09-24T01:59:25.320Z,96828.72
2022-09-24T02:02:00.624Z,96823.13
2022-09-24T02:04:30.013Z,96823.47
2022-09-24T02:07:00.561Z,96815.75
2022-09-24T02:09:33.265Z,96803.72
2022-09-24T02:12:05.030Z,96796.97
2022-09-24T02:14:34.177Z,96793.03
2022-09-24T02:17:05.528Z,96798.59
2022-09-24T02:19:37.600Z,96797.13
2022-09-24T02:22:07.151Z,96791.03
2022-09-24T02:24:39.101Z,96783.16
2022-09-24T02:27:07.358Z,96785.31
2022-09-24T02:29:36.089Z,96779.53
2022-09-24T02:32:06.873Z,96769.03
2022-09-24T02:34:38.462Z,96765.88
2022-09-24T02:37:08.120Z,96767.53
2022-09-24T02:39:36.537Z,96762.94
2022-09-24T02:42:06.218Z,96764.06
2022-09-24T02:44:34.443Z,96759.31
2022-09-24T02:47:02.581Z,96759.47
2022-09-24T02:49:32.266Z,96756.03
2022-09-24T02:52:00.691Z,96743.22
2022-09-24T02:54:28.941Z,96741.53
2022-09-24T02:56:57.021Z,96733.84
2022-09-24T02:59:25.220Z,96732.53
2022-09-24T03:01:53.463Z,96734.97
2022-09-24T03:04:22.000Z,96739.56
2022-09-24T03:06:51.531Z,96737.91
2022-09-24T03:09:19.702Z,96745.41
2022-09-24T03:11:47.787Z,96744.41
2022-09-24T03:14:16.042Z,96745.72
2022-09-24T03:16:44.119Z,96744.88
2022-09-24T03:19:12.261Z,96744.84
2022-09-24T03:21:40.394Z,96750.72
2022-09-24T03:24:09.911Z,96742.19
2022-09-24T03:26:38.251Z,96746.91
2022-09-24T03:29:06.375Z,96750.22
2022-09-24T03:31:33.646Z,96750.94
2022-09-24T03:34:01.902Z,96749.97
2022-09-24T03:36:30.027Z,96740.31
2022-09-24T03:42:06.321Z,96758.44
2022-09-24T03:44:34.510Z,96754.69
2022-09-24T03:47:02.693Z,96748.94
2022-09-24T03:49:30.851Z,96749.28
2022-09-24T03:51:58.969Z,96756.63
2022-09-24T03:54:27.163Z,96755.81
2022-09-24T03:56:55.281Z,96740.38
2022-09-24T03:59:24.961Z,96733.78
2022-09-24T04:01:53.054Z,96738.38
2022-09-24T04:04:23.560Z,96738.56
2022-09-24T04:06:52.933Z,96733.47
2022-09-24T04:09:21.061Z,96744.16
2022-09-24T04:11:49.211Z,96737.91
2022-09-24T04:14:17.249Z,96750.53
2022-09-24T04:16:46.649Z,96752.69
2022-09-24T04:19:16.272Z,96753.19
2022-09-24T04:21:44.529Z,96754.34
2022-09-24T04:24:12.979Z,96746.78
2022-09-24T04:26:41.193Z,96747.75
2022-09-24T04:29:09.678Z,96747.25
2022-09-24T04:31:38.691Z,96751.69
2022-09-24T04:34:08.303Z,96747.75
2022-09-24T04:36:36.369Z,96750.22
2022-09-24T04:39:04.561Z,96746.59
2022-09-24T04:41:35.239Z,96740.84
2022-09-24T04:44:04.016Z,96745.25
2022-09-24T04:46:33.709Z,96736.19
2022-09-24T04:49:01.825Z,96746.81
2022-09-24T04:51:35.783Z,96739.13
2022-09-24T04:54:04.378Z,96725.03
2022-09-24T04:56:32.928Z,96729.81
2022-09-24T04:59:01.275Z,96732.44
2022-09-24T05:01:29.730Z,96739.47
2022-09-24T05:03:57.888Z,96745.06
2022-09-24T05:06:25.989Z,96739.16
2022-09-24T05:08:55.682Z,96737.00
2022-09-24T05:11:23.780Z,96732.38
2022-09-24T05:13:51.907Z,96724.03
2022-09-24T05:16:20.001Z,96717.16
2022-09-24T05:18:48.173Z,96713.88
2022-09-24T05:21:16.270Z,96716.38
2022-09-24T05:23:44.413Z,96709.63
2022-09-24T05:26:31.477Z,96715.56
2022-09-24T05:28:59.601Z,96715.06
2022-09-24T05:31:28.014Z,96724.13
2022-09-24T05:33:56.263Z,96730.38
2022-09-24T05:36:27.071Z,96733.84
2022-09-24T05:38:55.249Z,96734.16
2022-09-24T05:41:24.761Z,96730.75
2022-09-24T05:43:52.939Z,96730.56
2022-09-24T05:46:21.064Z,96729.56
2022-09-24T05:48:49.870Z,96727.28
2022-09-24T05:51:17.963Z,96726.63
2022-09-24T05:53:46.188Z,96718.91
2022-09-24T05:56:14.281Z,96715.59
2022-09-24T05:58:43.821Z,96702.44
2022-09-24T06:01:12.108Z,96702.28
2022-09-24T06:03:40.261Z,96702.47
2022-09-24T06:06:08.684Z,96701.81
2022-09-24T06:08:36.929Z,96708.03
2022-09-24T06:11:06.869Z,96703.44
2022-09-24T06:13:35.264Z,96708.03
2022-09-24T06:16:06.366Z,96703.25
2022-09-24T06:18:35.222Z,96707.03
2022-09-24T06:21:04.519Z,96707.16
2022-09-24T06:23:33.388Z,96716.03
2022-09-24T06:26:01.659Z,96707.34
2022-09-24T06:28:30.080Z,96719.28
2022-09-24T06:31:00.973Z,96716.94
2022-09-24T06:33:30.946Z,96721.88
2022-09-24T06:36:01.420Z,96713.94
2022-09-24T06:38:30.339Z,96722.31
2022-09-24T06:41:01.099Z,96708.25
2022-09-24T06:43:29.377Z,96714.13
2022-09-24T06:45:58.387Z,96700.19
2022-09-24T06:48:27.746Z,96718.44
2022-09-24T06:50:57.617Z,96717.53
2022-09-24T06:53:25.929Z,96710.78
2022-09-24T06:55:54.690Z,96704.09
2022-09-24T06:58:23.811Z,96703.75
2022-09-24T07:00:54.474Z,96711.13
2022-09-24T07:03:23.171Z,96715.44
2022-09-24T07:05:51.340Z,96726.28
2022-09-24T07:08:20.891Z,96726.28
2022-09-24T07:10:50.449Z,96728.09
2022-09-24T07:13:18.679Z,96723.47
2022-09-24T07:15:46.975Z,96725.91
2022-09-24T07:18:15.090Z,96713.50
2022-09-24T07:20:43.479Z,96720.81
2022-09-24T07:23:12.897Z,96721.09
2022-09-24T07:25:42.530Z,96722.75
2022-09-24T07:28:13.615Z,96722.84
2022-09-24T07:30:41.930Z,96721.78
2022-09-24T07:33:10.389Z,96713.97
2022-09-24T07:35:39.909Z,96719.94
2022-09-24T07:38:09.651Z,96708.59
2022-09-24T07:40:37.906Z,96705.34
2022-09-24T07:43:14.138Z,96709.41
2022-09-24T07:45:43.112Z,96701.53
2022-09-24T07:48:13.001Z,96705.19
2022-09-24T07:50:42.875Z,96706.84
2022-09-24T07:53:12.298Z,96705.97
2022-09-24T07:55:41.396Z,96713.41
2022-09-24T07:58:13.782Z,96704.94
2022-09-24T08:00:42.464Z,96713.25
2022-09-24T08:03:10.995Z,96696.25
2022-09-24T08:05:45.506Z,96706.56
2022-09-24T08:08:14.138Z,96705.28
2022-09-24T08:10:43.208Z,96704.50
2022-09-24T08:13:12.773Z,96707.84
2022-09-24T08:15:41.095Z,96710.91
2022-09-24T08:18:09.283Z,96706.66
2022-09-24T08:20:38.371Z,96709.13
2022-09-24T08:23:08.390Z,96709.94
2022-09-24T08:25:36.642Z,96708.50
2022-09-24T08:28:05.403Z,96710.75
2022-09-24T08:30:35.803Z,96719.91
2022-09-24T08:33:05.629Z,96717.41
2022-09-24T08:35:34.389Z,96715.91
2022-09-24T08:38:03.652Z,96717.38
2022-09-24T08:40:34.868Z,96715.41
2022-09-24T08:43:07.905Z,96709.91
2022-09-24T08:46:03.177Z,96704.38
2022-09-24T08:48:35.559Z,96714.38
2022-09-24T08:51:06.479Z,96705.88
2022-09-24T08:53:44.180Z,96703.13
2022-09-24T08:56:13.039Z,96712.25
2022-09-24T08:58:47.248Z,96710.34
2022-09-24T09:01:23.145Z,96711.94
2022-09-24T09:03:55.182Z,96710.53
2022-09-24T09:06:39.794Z,96706.53
2022-09-24T09:09:13.231Z,96706.75
2022-09-24T09:11:42.540Z,96705.94
2022-09-24T09:14:15.041Z,96704.81
2022-09-24T09:16:49.210Z,96715.53
2022-09-24T09:19:18.120Z,96718.22
2022-09-24T09:21:52.726Z,96714.13
2022-09-24T09:24:23.698Z,96714.63
2022-09-24T09:26:54.783Z,96716.06
2022-09-24T09:29:24.366Z,96704.22
2022-09-24T09:32:03.320Z,96706.31
2022-09-24T09:34:40.842Z,96697.66
2022-09-24T09:37:22.028Z,96699.00
2022-09-24T09:39:57.160Z,96706.25
2022-09-24T09:42:32.323Z,96711.06
2022-09-24T09:45:02.000Z,96708.28
2022-09-24T09:47:40.984Z,96705.28
2022-09-24T09:50:20.933Z,96688.50
2022-09-24T09:52:49.170Z,96706.56
2022-09-24T09:55:25.287Z,96693.69
2022-09-24T09:57:53.797Z,96689.78
2022-09-24T10:00:34.278Z,96686.63
2022-09-24T10:03:04.368Z,96688.88
2022-09-24T10:05:32.760Z,96693.28
2022-09-24T10:08:00.927Z,96688.78
2022-09-24T10:10:30.419Z,96695.53
2022-09-24T10:13:09.166Z,96700.66
2022-09-24T10:15:45.329Z,96694.94
2022-09-24T10:18:15.990Z,96708.09
2022-09-24T10:20:48.420Z,96702.16
2022-09-24T10:23:20.349Z,96694.84
2022-09-24T10:25:52.430Z,96703.06
2022-09-24T10:28:39.610Z,96701.44
2022-09-24T10:31:12.984Z,96696.56
2022-09-24T10:33:43.946Z,96701.56
2022-09-24T10:36:16.499Z,96708.31
2022-09-24T10:38:44.954Z,96712.41
2022-09-24T10:41:18.480Z,96704.13
2022-09-24T10:43:52.360Z,96712.47
2022-09-24T10:46:33.864Z,96721.25
2022-09-24T10:49:07.368Z,96723.34
2022-09-24T10:51:41.061Z,96712.03
2022-09-24T10:54:28.989Z,96714.81
2022-09-24T10:56:58.336Z,96718.28
2022-09-24T10:59:41.039Z,96715.19
2022-09-24T11:02:27.684Z,96715.84
2022-09-24T11:04:58.678Z,96721.16
2022-09-24T11:07:44.692Z,96719.28
2022-09-24T11:10:24.122Z,96713.88
2022-09-24T11:13:03.941Z,96717.38
2022-09-24T11:15:51.147Z,96722.84
2022-09-24T11:18:31.426Z,96720.53
2022-09-24T11:21:10.686Z,96718.53
2022-09-24T11:23:52.899Z,96713.88
2022-09-24T11:26:28.399Z,96720.28
2022-09-24T11:29:11.280Z,96713.53
2022-09-24T11:31:43.351Z,96719.69
2022-09-24T11:34:30.668Z,96715.28
2022-09-24T11:37:10.130Z,96712.94
2022-09-24T11:39:47.847Z,96709.09
2022-09-24T11:42:23.488Z,96702.56
2022-09-24T11:45:12.470Z,96700.28
2022-09-24T11:47:56.807Z,96696.81
2022-09-24T11:50:37.111Z,96700.56
2022-09-24T11:53:09.767Z,96706.56
2022-09-24T11:55:41.100Z,96707.34
2022-09-24T11:58:15.730Z,96709.75
2022-09-24T12:00:46.589Z,96711.00
2022-09-24T12:03:23.621Z,96714.63
2022-09-24T12:05:57.770Z,96713.34
2022-09-24T12:08:30.917Z,96706.63
2022-09-24T12:11:03.120Z,96710.66
2022-09-24T12:13:36.298Z,96715.84
2022-09-24T12:16:09.495Z,96715.91
2022-09-24T12:18:43.360Z,96708.84
2022-09-24T12:21:13.883Z,96698.81
2022-09-24T12:23:45.650Z,96707.56
2022-09-24T12:26:17.116Z,96708.78
2022-09-24T12:29:07.897Z,96709.16
2022-09-24T12:31:59.941Z,96706.78
2022-09-24T12:34:33.419Z,96707.09
2022-09-24T12:37:04.994Z,96703.97
2022-09-24T12:39:39.058Z,96707.06
2022-09-24T12:42:08.649Z,96708.53
2022-09-24T12:44:43.347Z,96706.22
2022-09-24T12:47:21.519Z,96695.03
2022-09-24T12:49:53.591Z,96691.75
2022-09-24T12:52:27.419Z,96698.63
2022-09-24T12:55:00.650Z,96697.25
2022-09-24T12:57:33.284Z,96693.69
2022-09-24T13:00:03.129Z,96686.16
2022-09-24T13:02:33.482Z,96685.38
2022-09-24T13:05:19.782Z,96685.19
2022-09-24T13:07:58.559Z,96683.88
2022-09-24T13:10:29.898Z,96676.34
2022-09-24T13:13:00.230Z,96675.31
2022-09-24T13:15:34.974Z,96676.38
2022-09-24T13:18:15.529Z,96678.63
2022-09-24T13:20:49.909Z,96676.19
2022-09-24T13:23:32.800Z,96678.00
2022-09-24T13:26:05.043Z,96679.75
2022-09-24T13:28:38.876Z,96671.16
2022-09-24T13:31:15.614Z,96675.06
2022-09-24T13:33:45.847Z,96675.50
2022-09-24T13:36:17.220Z,96675.56
2022-09-24T13:38:52.737Z,96672.91
2022-09-24T13:41:40.485Z,96680.50
2022-09-24T13:44:17.661Z,96677.28
2022-09-24T13:46:47.560Z,96684.53
2022-09-24T13:49:19.310Z,96690.88
2022-09-24T13:51:49.999Z,96682.91
2022-09-24T13:54:23.329Z,96680.09
2022-09-24T13:57:01.069Z,96682.91
2022-09-24T13:59:31.055Z,96681.47
2022-09-24T14:01:59.598Z,96673.72
2022-09-24T14:04:27.881Z,96674.75
2022-09-24T14:06:57.609Z,96673.31
2022-09-24T14:09:30.066Z,96662.25
2022-09-24T14:12:00.761Z,96671.88
2022-09-24T14:14:30.599Z,96669.16
2022-09-24T14:17:07.942Z,96667.91
2022-09-24T14:19:36.345Z,96668.72
2022-09-24T14:22:05.381Z,96673.66
2022-09-24T14:24:36.507Z,96661.63
2022-09-24T14:27:08.484Z,96674.81
2022-09-24T14:29:46.962Z,96677.50
2022-09-24T14:32:23.219Z,96681.63
2022-09-24T14:34:53.457Z,96660.19
2022-09-24T14:37:23.507Z,96676.38
2022-09-24T14:39:57.977Z,96671.06
2022-09-24T14:42:30.619Z,96673.72
2022-09-24T14:44:59.161Z,96674.09
2022-09-24T14:47:29.104Z,96669.66
2022-09-24T14:49:57.963Z,96660.50
2022-09-24T14:52:32.044Z,96659.88
2022-09-24T14:55:05.629Z,96658.06
2022-09-24T14:57:39.100Z,96647.25
2022-09-24T15:00:22.340Z,96647.41
2022-09-24T15:02:52.863Z,96660.88
2022-09-24T15:05:25.138Z,96651.94
2022-09-24T15:07:54.790Z,96666.47
2022-09-24T15:10:24.099Z,96657.72
2022-09-24T15:12:53.718Z,96664.06
2022-09-24T15:15:30.754Z,96664.13
2022-09-24T15:17:59.089Z,96667.56
2022-09-24T15:20:27.525Z,96671.00
2022-09-24T15:22:56.300Z,96672.25
2022-09-24T15:25:24.806Z,96673.31
2022-09-24T15:27:54.970Z,96668.81
2022-09-24T15:30:23.950Z,96661.28
2022-09-24T15:32:52.640Z,96680.28
2022-09-24T15:35:21.054Z,96675.59
2022-09-24T15:37:50.049Z,96677.22
2022-09-24T15:40:23.260Z,96678.06
2022-09-24T15:42:53.269Z,96678.47
2022-09-24T15:45:23.722Z,96674.22
2022-09-24T15:47:52.810Z,96671.94
2022-09-24T15:50:23.490Z,96673.19
2022-09-24T15:52:54.801Z,96665.22
2022-09-24T15:55:24.172Z,96676.03
2022-09-24T15:57:55.050Z,96665.59
2022-09-24T16:00:24.640Z,96669.91
2022-09-24T16:02:54.194Z,96671.94
2022-09-24T16:05:22.440Z,96670.31
2022-09-24T16:07:50.652Z,96674.59
2022-09-24T16:10:19.038Z,96674.22
2022-09-24T16:12:47.709Z,96681.34
2022-09-24T16:15:19.050Z,96676.22
2022-09-24T16:17:50.104Z,96676.63
2022-09-24T16:20:18.220Z,96683.16
2022-09-24T16:22:46.409Z,96683.38
2022-09-24T16:25:14.537Z,96683.41
2022-09-24T16:27:42.737Z,96694.44
2022-09-24T16:30:11.624Z,96694.19
2022-09-24T16:32:41.330Z,96697.69
2022-09-24T16:35:11.331Z,96703.41
2022-09-24T16:37:39.459Z,96703.59
2022-09-24T16:40:08.878Z,96706.47
2022-09-24T16:42:37.301Z,96707.69
2022-09-24T16:45:07.258Z,96702.38
2022-09-24T16:47:35.573Z,96698.47
2022-09-24T16:50:06.040Z,96687.25
2022-09-24T16:52:34.127Z,96709.72
2022-09-24T16:55:02.346Z,96706.22
2022-09-24T16:57:30.468Z,96706.00
2022-09-24T16:59:58.573Z,96701.94
2022-09-24T17:02:26.804Z,96705.41
2022-09-24T17:04:59.395Z,96717.63
2022-09-24T17:07:32.310Z,96715.78
2022-09-24T17:10:15.857Z,96715.75
2022-09-24T17:12:45.497Z,96707.00
2022-09-24T17:15:15.321Z,96705.72
2022-09-24T17:17:49.479Z,96705.91
2022-09-24T17:20:18.671Z,96703.22
2022-09-24T17:22:48.698Z,96703.63
2022-09-24T17:25:16.973Z,96709.72
2022-09-24T17:27:45.105Z,96713.38
2022-09-24T17:30:14.031Z,96716.22
2022-09-24T17:32:42.120Z,96717.25
2022-09-24T17:35:10.819Z,96713.97
2022-09-24T17:37:38.883Z,96714.81
2022-09-24T17:40:09.350Z,96721.91
2022-09-24T17:42:37.438Z,96717.84
2022-09-24T17:45:06.541Z,96719.69
2022-09-24T17:47:56.212Z,96719.88
2022-09-24T17:50:24.498Z,96719.50
2022-09-24T17:52:52.560Z,96728.47
2022-09-24T17:55:22.228Z,96728.06
2022-09-24T17:57:50.517Z,96736.84
2022-09-24T18:00:18.777Z,96724.78
2022-09-24T18:02:46.972Z,96730.31
2022-09-24T18:05:15.258Z,96741.53
2022-09-24T18:07:43.459Z,96725.84
2022-09-24T18:10:11.572Z,96739.09
2022-09-24T18:12:41.112Z,96725.81
2022-09-24T18:15:09.793Z,96734.59
2022-09-24T18:17:37.942Z,96735.00
2022-09-24T18:20:07.127Z,96738.66
2022-09-24T18:22:35.313Z,96741.53
2022-09-24T18:25:05.879Z,96729.69
2022-09-24T18:27:36.571Z,96739.44
2022-09-24T18:30:07.791Z,96730.09
2022-09-24T18:32:37.209Z,96732.91
2022-09-24T18:35:06.470Z,96744.53
2022-09-24T18:37:36.280Z,96746.38
2022-09-24T18:40:05.594Z,96744.53
2022-09-24T18:42:35.038Z,96742.47
2022-09-24T18:45:03.661Z,96747.19
2022-09-24T18:47:33.420Z,96731.25
2022-09-24T18:53:52.860Z,96738.84
2022-09-24T18:56:22.070Z,96740.06
2022-09-24T18:58:50.333Z,96742.28
2022-09-24T19:01:18.729Z,96743.91
2022-09-24T19:03:48.579Z,96740.69
2022-09-24T19:06:16.858Z,96739.41
2022-09-24T19:08:45.570Z,96742.06
2022-09-24T19:11:15.970Z,96740.03
2022-09-24T19:13:48.627Z,96745.91
2022-09-24T19:16:17.749Z,96748.78
2022-09-24T19:18:47.511Z,96755.09
2022-09-24T19:21:16.271Z,96752.66
2022-09-24T19:23:46.151Z,96755.09
2022-09-24T19:26:16.228Z,96754.69
2022-09-24T19:28:44.944Z,96751.19
2022-09-24T19:31:17.286Z,96753.22
2022-09-24T19:33:45.645Z,96751.97
2022-09-24T19:36:15.839Z,96747.91
2022-09-24T19:38:44.150Z,96744.66
2022-09-24T19:41:15.123Z,96746.09
2022-09-24T19:43:44.554Z,96739.75
2022-09-24T19:46:14.777Z,96741.31
2022-09-24T19:48:44.636Z,96742.34
2022-09-24T19:51:16.023Z,96731.72
2022-09-24T19:53:44.400Z,96742.09
2022-09-24T19:56:14.340Z,96734.78
2022-09-24T19:58:42.557Z,96738.22
2022-09-24T20:01:14.925Z,96741.88
2022-09-24T20:03:45.169Z,96750.03
2022-09-24T20:06:18.389Z,96745.75
2022-09-24T20:08:46.902Z,96741.69
2022-09-24T20:11:20.574Z,96741.88
2022-09-24T20:13:49.127Z,96742.09
2022-09-24T20:16:19.661Z,96739.63
2022-09-24T20:18:48.459Z,96738.63
2022-09-24T20:21:19.202Z,96741.66
2022-09-24T20:23:50.745Z,96738.53
2022-09-24T20:26:36.209Z,96736.09
2022-09-24T20:29:05.940Z,96738.91
2022-09-24T20:31:34.230Z,96729.31
2022-09-24T20:34:02.661Z,96739.94
2022-09-24T20:36:32.801Z,96733.00
2022-09-24T20:39:01.071Z,96738.69
2022-09-24T20:41:29.270Z,96733.38
2022-09-24T20:43:57.487Z,96737.03
2022-09-24T20:46:28.132Z,96726.59
2022-09-24T20:48:58.820Z,96728.47
2022-09-24T20:51:28.631Z,96729.25
2022-09-24T20:53:59.878Z,96732.84
2022-09-24T20:56:30.795Z,96726.44
2022-09-24T20:59:01.109Z,96729.03
2022-09-24T21:01:29.538Z,96727.34
2022-09-24T21:03:58.420Z,96733.38
2022-09-24T21:06:27.215Z,96721.31
2022-09-24T21:08:55.611Z,96731.63
2022-09-24T21:11:26.909Z,96708.66
2022-09-24T21:13:57.320Z,96729.88
2022-09-24T21:16:28.419Z,96733.84
2022-09-24T21:18:56.761Z,96730.31
2022-09-24T21:21:26.887Z,96730.41
2022-09-24T21:23:56.179Z,96731.91
2022-09-24T21:26:27.581Z,96730.38
2022-09-24T21:28:57.066Z,96723.59
2022-09-24T21:31:27.586Z,96730.34
2022-09-24T21:33:56.320Z,96732.03
2022-09-24T21:36:26.359Z,96716.66
2022-09-24T21:38:55.674Z,96731.22
2022-09-24T21:41:26.226Z,96730.66
2022-09-24T21:43:55.656Z,96724.66
2022-09-24T21:46:24.437Z,96735.09
2022-09-24T21:48:54.113Z,96732.72
2022-09-24T21:51:23.920Z,96739.50
2022-09-24T21:53:53.400Z,96737.31
2022-09-24T21:56:23.199Z,96732.44
2022-09-24T21:58:54.081Z,96735.09
2022-09-24T22:01:26.090Z,96728.38
2022-09-24T22:03:55.735Z,96733.44
2022-09-24T22:06:28.750Z,96737.75
2022-09-24T22:08:58.078Z,96730.44
2022-09-24T22:11:26.589Z,96736.09
2022-09-24T22:14:01.346Z,96736.38
2022-09-24T22:16:30.119Z,96731.34
2022-09-24T22:18:58.449Z,96733.00
2022-09-24T22:21:27.321Z,96727.78
2022-09-24T22:23:56.799Z,96733.47
2022-09-24T22:26:26.307Z,96730.81
2022-09-24T22:28:56.007Z,96727.78
2022-09-24T22:31:24.389Z,96729.00
2022-09-24T22:34:10.644Z,96718.78
2022-09-24T22:36:39.218Z,96716.09
2022-09-24T22:39:08.003Z,96721.25
2022-09-24T22:41:38.623Z,96718.97
2022-09-24T22:44:08.858Z,96725.06
2022-09-24T22:46:38.345Z,96719.97
2022-09-24T22:49:07.351Z,96727.94
2022-09-24T22:51:39.669Z,96713.88
2022-09-24T22:54:08.979Z,96710.16
2022-09-24T22:56:37.431Z,96724.28
2022-09-24T22:59:07.560Z,96724.69
2022-09-24T23:01:38.182Z,96724.50
2022-09-24T23:04:06.746Z,96722.50
2022-09-24T23:06:35.360Z,96719.28
2022-09-24T23:09:04.026Z,96717.81
2022-09-24T23:11:34.190Z,96715.00
2022-09-24T23:14:04.287Z,96709.25
2022-09-24T23:16:35.623Z,96705.59
2022-09-24T23:19:05.709Z,96703.34
2022-09-24T23:21:34.569Z,96706.38
2022-09-24T23:24:04.549Z,96700.47
2022-09-24T23:26:33.220Z,96705.53
2022-09-24T23:29:02.006Z,96703.28
2022-09-24T23:31:31.951Z,96698.75
2022-09-24T23:34:02.381Z,96699.06
2022-09-24T23:36:32.330Z,96699.19
2022-09-24T23:39:01.381Z,96696.56
2022-09-24T23:41:31.869Z,96706.97
2022-09-24T23:44:00.640Z,96710.78
2022-09-24T23:46:29.310Z,96710.78
2022-09-24T23:48:57.997Z,96704.25
2022-09-24T23:51:27.719Z,96699.25
2022-09-24T23:53:56.000Z,96696.28
2022-09-24T23:56:24.307Z,96699.56
2022-09-24T23:58:53.039Z,96708.22
